createdAt,value
2023-01-12T00:01:14.465Z,69.20
2023-01-12T00:03:47.052Z,69.20
2023-01-12T00:06:20.680Z,69.39
2023-01-12T00:08:53.464Z,70.08
2023-01-12T00:11:26.326Z,70.99
2023-01-12T00:13:58.995Z,71.42
2023-01-12T00:16:31.618Z,71.15
2023-01-12T00:19:18.700Z,70.61
2023-01-12T00:21:57.133Z,70.61
2023-01-12T00:24:38.889Z,72.23
2023-01-12T00:27:17.306Z,72.14
2023-01-12T00:29:50.197Z,72.25
2023-01-12T00:32:22.740Z,71.25
2023-01-12T00:34:55.322Z,71.19
2023-01-12T00:37:27.834Z,72.93
2023-01-12T00:40:02.914Z,71.45
2023-01-12T00:42:35.747Z,70.77
2023-01-12T00:45:09.635Z,71.29
2023-01-12T00:47:43.098Z,72.24
2023-01-12T00:50:17.393Z,70.32
2023-01-12T00:52:51.722Z,72.08
2023-01-12T00:55:24.297Z,70.71
2023-01-12T00:57:57.095Z,69.96
2023-01-12T01:00:29.679Z,70.57
2023-01-12T01:03:02.321Z,69.16
2023-01-12T01:05:34.950Z,70.21
2023-01-12T01:08:07.568Z,69.54
2023-01-12T01:10:40.076Z,69.40
2023-01-12T01:13:12.724Z,69.55
2023-01-12T01:15:45.377Z,68.80
2023-01-12T01:18:17.916Z,70.56
2023-01-12T01:20:50.417Z,70.93
2023-01-12T01:23:25.225Z,70.43
2023-01-12T01:26:02.569Z,69.64
2023-01-12T01:28:36.013Z,67.98
2023-01-12T01:31:13.465Z,66.67
2023-01-12T01:33:47.556Z,66.68
2023-01-12T01:36:20.907Z,66.63
2023-01-12T01:38:53.550Z,67.20
2023-01-12T01:41:31.634Z,67.06
2023-01-12T01:44:25.095Z,66.01
2023-01-12T01:47:08.127Z,67.23
2023-01-12T01:49:49.041Z,66.85
2023-01-12T01:52:28.771Z,66.95
2023-01-12T01:55:06.715Z,67.67
2023-01-12T01:57:50.209Z,69.62
2023-01-12T02:00:24.869Z,68.24
2023-01-12T02:03:01.573Z,68.92
2023-01-12T02:05:37.170Z,68.81
2023-01-12T02:08:35.048Z,68.70
2023-01-12T02:11:08.255Z,67.44
2023-01-12T02:13:40.881Z,67.44
2023-01-12T02:16:20.329Z,68.16
2023-01-12T02:19:14.400Z,67.72
2023-01-12T02:22:11.662Z,66.85
2023-01-12T02:24:47.065Z,66.44
2023-01-12T02:27:30.472Z,67.22
2023-01-12T02:30:24.897Z,69.85
2023-01-12T02:33:07.522Z,69.72
2023-01-12T02:35:42.588Z,69.71
2023-01-12T02:38:36.011Z,70.01
2023-01-12T02:41:26.691Z,69.88
2023-01-12T02:43:59.918Z,67.91
2023-01-12T02:46:33.726Z,67.29
2023-01-12T02:49:18.448Z,67.51
2023-01-12T02:51:58.035Z,68.33
2023-01-12T02:54:34.279Z,68.31
2023-01-12T02:57:10.470Z,66.78
2023-01-12T02:59:45.145Z,67.44
2023-01-12T03:02:24.710Z,66.25
2023-01-12T03:04:57.321Z,65.37
2023-01-12T03:07:45.175Z,66.29
2023-01-12T03:10:42.359Z,65.69
2023-01-12T03:13:16.582Z,66.57
2023-01-12T03:15:54.047Z,67.39
2023-01-12T03:18:29.239Z,68.27
2023-01-12T03:21:18.026Z,68.33
2023-01-12T03:23:58.878Z,67.69
2023-01-12T03:26:36.313Z,67.63
2023-01-12T03:29:29.261Z,68.17
2023-01-12T03:32:02.942Z,68.86
2023-01-12T03:34:37.630Z,66.77
2023-01-12T03:37:44.450Z,68.22
2023-01-12T03:40:44.352Z,68.18
2023-01-12T03:43:38.653Z,68.65
2023-01-12T03:46:32.797Z,68.33
2023-01-12T03:49:26.898Z,68.61
2023-01-12T03:52:03.551Z,67.19
2023-01-12T03:54:40.564Z,66.01
2023-01-12T03:57:14.722Z,65.39
2023-01-12T03:59:47.386Z,66.86
2023-01-12T04:02:20.046Z,67.15
2023-01-12T04:04:52.688Z,66.58
2023-01-12T04:07:25.302Z,68.21
2023-01-12T04:09:57.922Z,66.54
2023-01-12T04:12:30.502Z,67.30
2023-01-12T04:15:03.323Z,66.78
2023-01-12T04:17:35.936Z,67.27
2023-01-12T04:20:09.355Z,67.50
2023-01-12T04:22:41.969Z,68.33
2023-01-12T04:25:18.366Z,67.79
2023-01-12T04:27:56.014Z,68.68
2023-01-12T04:30:31.216Z,68.51
2023-01-12T04:33:08.167Z,67.66
2023-01-12T04:35:40.847Z,69.13
2023-01-12T04:38:13.410Z,68.20
2023-01-12T04:40:46.026Z,69.67
2023-01-12T04:43:18.682Z,69.58
2023-01-12T04:45:51.375Z,70.19
2023-01-12T04:48:25.237Z,69.13
2023-01-12T04:51:00.469Z,69.05
2023-01-12T04:53:33.180Z,66.94
2023-01-12T04:56:07.150Z,66.21
2023-01-12T04:58:39.853Z,67.28
2023-01-12T05:01:18.488Z,67.24
2023-01-12T05:03:51.215Z,68.02
2023-01-12T05:06:24.348Z,69.08
2023-01-12T05:08:57.015Z,69.66
2023-01-12T05:11:30.203Z,69.56
2023-01-12T05:14:02.840Z,68.47
2023-01-12T05:16:35.500Z,67.94
2023-01-12T05:19:09.130Z,66.57
2023-01-12T05:21:41.672Z,66.83
2023-01-12T05:24:14.273Z,66.55
2023-01-12T05:26:46.923Z,65.01
2023-01-12T05:29:19.490Z,66.83
2023-01-12T05:31:52.343Z,66.17
2023-01-12T05:34:24.940Z,67.33
2023-01-12T05:36:57.591Z,66.21
2023-01-12T05:39:30.204Z,64.85
2023-01-12T05:42:02.803Z,64.76
2023-01-12T05:44:35.439Z,64.48
2023-01-12T05:47:08.036Z,62.61
2023-01-12T05:49:40.624Z,63.19
2023-01-12T05:52:13.221Z,66.42
2023-01-12T05:54:45.823Z,66.35
2023-01-12T05:57:18.506Z,65.96
2023-01-12T05:59:51.125Z,65.84
2023-01-12T06:02:23.831Z,66.49
2023-01-12T06:04:56.533Z,65.02
2023-01-12T06:07:29.183Z,65.51
2023-01-12T06:10:01.856Z,65.01
2023-01-12T06:12:34.436Z,65.85
2023-01-12T06:15:07.526Z,66.28
2023-01-12T06:17:40.202Z,68.18
2023-01-12T06:20:13.588Z,66.74
2023-01-12T06:22:46.216Z,68.17
2023-01-12T06:25:19.094Z,67.91
2023-01-12T06:27:51.703Z,67.18
2023-01-12T06:30:24.777Z,67.38
2023-01-12T06:33:01.876Z,67.31
2023-01-12T06:35:34.513Z,67.46
2023-01-12T06:38:07.123Z,68.29
2023-01-12T06:40:39.675Z,69.25
2023-01-12T06:43:12.301Z,69.05
2023-01-12T06:45:45.691Z,67.26
2023-01-12T06:48:18.555Z,67.48
2023-01-12T06:50:52.801Z,66.93
2023-01-12T06:53:25.415Z,66.07
2023-01-12T06:55:58.000Z,66.72
2023-01-12T06:58:30.693Z,67.49
2023-01-12T07:01:04.621Z,69.09
2023-01-12T07:03:37.268Z,68.64
2023-01-12T07:06:09.868Z,68.54
2023-01-12T07:08:42.526Z,69.47
2023-01-12T07:11:15.190Z,70.70
2023-01-12T07:13:47.796Z,70.88
2023-01-12T07:16:20.458Z,70.47
2023-01-12T07:18:53.103Z,69.28
2023-01-12T07:21:25.688Z,70.11
2023-01-12T07:23:58.251Z,71.72
2023-01-12T07:26:30.832Z,71.76
2023-01-12T07:29:03.941Z,71.36
2023-01-12T07:31:36.745Z,72.51
2023-01-12T07:34:09.366Z,72.51
2023-01-12T07:36:42.088Z,70.98
2023-01-12T07:39:14.685Z,69.41
2023-01-12T07:41:47.317Z,70.20
2023-01-12T07:44:20.080Z,69.16
2023-01-12T07:46:52.692Z,69.60
2023-01-12T07:49:26.302Z,68.30
2023-01-12T07:51:59.091Z,68.49
2023-01-12T07:54:31.709Z,69.48
2023-01-12T07:57:07.012Z,68.57
2023-01-12T07:59:39.704Z,67.88
2023-01-12T08:02:14.176Z,66.52
2023-01-12T08:04:47.415Z,64.56
2023-01-12T08:07:20.145Z,61.35
2023-01-12T08:09:52.871Z,57.75
2023-01-12T08:12:25.693Z,53.45
2023-01-12T08:14:58.375Z,53.70
2023-01-12T08:17:40.326Z,57.18
2023-01-12T08:20:26.717Z,57.20
2023-01-12T08:23:08.037Z,55.93
2023-01-12T08:25:46.088Z,59.93
2023-01-12T08:28:34.147Z,58.60
2023-01-12T08:31:07.948Z,56.57
2023-01-12T08:33:44.588Z,55.18
2023-01-12T08:36:18.033Z,54.25
2023-01-12T08:38:50.819Z,52.96
2023-01-12T08:41:24.456Z,51.61
2023-01-12T08:43:57.220Z,55.34
2023-01-12T08:46:29.757Z,53.27
2023-01-12T08:49:07.340Z,53.09
2023-01-12T08:51:41.967Z,57.75
2023-01-12T08:54:17.228Z,59.28
2023-01-12T08:56:50.511Z,57.08
2023-01-12T08:59:26.179Z,53.98
2023-01-12T09:01:59.024Z,48.85
2023-01-12T09:04:31.979Z,48.46
2023-01-12T09:07:04.684Z,50.25
2023-01-12T09:09:37.979Z,49.14
2023-01-12T09:12:10.604Z,51.76
2023-01-12T09:14:43.220Z,55.76
2023-01-12T09:17:15.829Z,49.93
2023-01-12T09:19:48.668Z,50.54
2023-01-12T09:22:21.289Z,50.99
2023-01-12T09:24:53.872Z,55.51
2023-01-12T09:27:26.482Z,57.97
2023-01-12T09:29:59.141Z,59.91
2023-01-12T09:32:36.902Z,59.99
2023-01-12T09:35:09.908Z,60.75
2023-01-12T09:37:42.501Z,60.01
2023-01-12T09:40:16.170Z,59.77
2023-01-12T09:42:52.665Z,57.64
2023-01-12T09:45:25.474Z,58.22
2023-01-12T09:47:59.435Z,57.95
2023-01-12T09:50:38.460Z,58.40
2023-01-12T09:53:17.207Z,58.10
2023-01-12T09:56:13.542Z,58.18
2023-01-12T09:59:02.797Z,58.23
2023-01-12T10:01:37.397Z,57.46
2023-01-12T10:04:10.203Z,57.04
2023-01-12T10:06:42.843Z,57.16
2023-01-12T10:09:19.875Z,58.42
2023-01-12T10:12:03.292Z,58.47
2023-01-12T10:14:49.707Z,59.50
2023-01-12T10:17:25.097Z,59.05
2023-01-12T10:20:02.320Z,59.05
2023-01-12T10:22:44.253Z,59.31
2023-01-12T10:25:29.550Z,58.28
2023-01-12T10:28:21.530Z,56.41
2023-01-12T10:30:56.342Z,55.07
2023-01-12T10:33:34.250Z,55.19
2023-01-12T10:36:17.693Z,55.50
2023-01-12T10:39:02.542Z,56.41
2023-01-12T10:41:36.523Z,56.95
2023-01-12T10:44:17.323Z,57.31
2023-01-12T10:47:09.590Z,58.52
2023-01-12T10:49:42.214Z,58.58
2023-01-12T10:52:37.775Z,59.46
2023-01-12T10:55:19.637Z,59.85
2023-01-12T10:57:52.837Z,61.10
2023-01-12T11:00:28.268Z,60.30
2023-01-12T11:03:00.951Z,61.94
2023-01-12T11:05:36.642Z,61.66
2023-01-12T11:08:38.464Z,62.12
2023-01-12T11:11:37.127Z,63.36
2023-01-12T11:14:25.563Z,62.01
2023-01-12T11:17:24.679Z,60.86
2023-01-12T11:20:01.529Z,61.33
2023-01-12T11:22:37.558Z,60.26
2023-01-12T11:25:22.467Z,60.75
2023-01-12T11:28:10.428Z,60.26
2023-01-12T11:31:24.494Z,58.84
2023-01-12T11:34:24.569Z,57.62
2023-01-12T11:37:11.006Z,58.14
2023-01-12T11:39:49.837Z,57.86
2023-01-12T11:42:28.109Z,56.95
2023-01-12T11:45:12.511Z,56.45
2023-01-12T11:48:07.215Z,56.60
2023-01-12T11:50:40.712Z,57.79
2023-01-12T11:53:22.306Z,57.62
2023-01-12T11:56:43.433Z,57.37
2023-01-12T11:59:29.837Z,58.14
2023-01-12T12:02:27.169Z,58.25
2023-01-12T12:05:18.137Z,58.45
2023-01-12T12:08:15.958Z,58.56
2023-01-12T12:11:03.540Z,59.85
2023-01-12T12:13:59.794Z,60.07
2023-01-12T12:17:14.341Z,59.33
2023-01-12T12:20:28.094Z,57.52
2023-01-12T12:23:18.678Z,56.91
2023-01-12T12:26:00.485Z,56.49
2023-01-12T12:28:33.294Z,56.78
2023-01-12T12:31:27.579Z,57.58
2023-01-12T12:34:11.840Z,56.99
2023-01-12T12:36:59.556Z,57.57
2023-01-12T12:39:55.981Z,57.23
2023-01-12T12:42:51.724Z,58.96
2023-01-12T12:45:51.721Z,57.51
2023-01-12T12:48:58.639Z,57.70
2023-01-12T12:51:34.608Z,56.32
2023-01-12T12:54:16.534Z,57.31
2023-01-12T12:56:50.508Z,57.68
2023-01-12T12:59:31.978Z,58.27
2023-01-12T13:02:04.798Z,57.93
2023-01-12T13:04:43.612Z,57.55
2023-01-12T13:07:21.236Z,58.25
2023-01-12T13:10:15.523Z,60.12
2023-01-12T13:13:01.264Z,59.44
2023-01-12T13:15:34.740Z,59.45
2023-01-12T13:19:02.522Z,59.16
2023-01-12T13:21:56.257Z,59.96
2023-01-12T13:24:40.431Z,59.34
2023-01-12T13:27:58.294Z,59.88
2023-01-12T13:30:30.900Z,60.48
2023-01-12T13:33:15.340Z,60.32
2023-01-12T13:35:47.978Z,60.75
2023-01-12T13:38:36.573Z,60.73
2023-01-12T13:41:15.059Z,61.36
2023-01-12T13:43:47.671Z,59.67
2023-01-12T13:46:46.547Z,58.98
2023-01-12T13:49:27.223Z,59.39
2023-01-12T13:52:20.528Z,60.46
2023-01-12T13:54:53.288Z,61.41
2023-01-12T13:57:30.109Z,60.98
2023-01-12T14:00:07.334Z,60.34
2023-01-12T14:02:45.260Z,60.55
2023-01-12T14:05:42.745Z,61.36
2023-01-12T14:08:50.713Z,61.02
2023-01-12T14:12:04.042Z,61.59
2023-01-12T14:15:18.246Z,61.59
2023-01-12T14:17:51.138Z,61.56
2023-01-12T14:20:27.061Z,60.87
2023-01-12T14:23:17.661Z,61.41
2023-01-12T14:26:07.390Z,61.35
2023-01-12T14:28:42.137Z,62.92
2023-01-12T14:31:39.124Z,61.88
2023-01-12T14:34:29.853Z,62.58
2023-01-12T14:37:06.488Z,60.67
2023-01-12T14:39:39.119Z,60.75
2023-01-12T14:42:20.037Z,60.50
2023-01-12T14:44:57.533Z,58.98
2023-01-12T14:47:34.629Z,59.53
2023-01-12T14:50:16.018Z,60.00
2023-01-12T14:52:49.049Z,59.44
2023-01-12T14:55:24.430Z,59.96
2023-01-12T14:58:01.776Z,59.73
2023-01-12T15:00:36.594Z,60.30
2023-01-12T15:03:26.336Z,60.04
2023-01-12T15:06:01.638Z,59.54
2023-01-12T15:08:34.323Z,59.92
2023-01-12T15:11:09.405Z,59.19
2023-01-12T15:13:42.061Z,58.63
2023-01-12T15:16:14.710Z,59.07
2023-01-12T15:18:47.557Z,59.09
2023-01-12T15:21:20.568Z,59.34
2023-01-12T15:23:53.213Z,59.06
2023-01-12T15:26:25.875Z,61.18
2023-01-12T15:28:58.494Z,60.34
2023-01-12T15:31:38.686Z,58.77
2023-01-12T15:34:12.068Z,60.13
2023-01-12T15:36:44.727Z,59.81
2023-01-12T15:39:17.404Z,60.13
2023-01-12T15:41:50.500Z,60.17
2023-01-12T15:44:23.170Z,61.45
2023-01-12T15:46:55.843Z,62.25
2023-01-12T15:49:28.455Z,61.38
2023-01-12T15:52:01.061Z,60.40
2023-01-12T15:54:33.700Z,62.30
2023-01-12T15:57:08.244Z,62.22
2023-01-12T15:59:41.287Z,63.45
2023-01-12T16:02:36.818Z,61.89
2023-01-12T16:05:11.256Z,62.54
2023-01-12T16:07:43.850Z,63.69
2023-01-12T16:10:17.725Z,64.04
2023-01-12T16:12:50.432Z,63.96
2023-01-12T16:15:25.148Z,63.78
2023-01-12T16:17:57.771Z,63.62
2023-01-12T16:20:30.409Z,63.56
2023-01-12T16:23:02.989Z,63.98
2023-01-12T16:25:36.951Z,64.03
2023-01-12T16:28:10.889Z,63.27
2023-01-12T16:30:47.173Z,63.16
2023-01-12T16:33:19.752Z,62.37
2023-01-12T16:35:55.248Z,62.55
2023-01-12T16:38:28.378Z,61.92
2023-01-12T16:41:13.278Z,62.43
2023-01-12T16:43:46.416Z,62.25
2023-01-12T16:46:18.997Z,62.13
2023-01-12T16:48:51.644Z,63.17
2023-01-12T16:51:24.263Z,63.09
2023-01-12T16:53:56.903Z,63.25
2023-01-12T16:56:29.529Z,65.12
2023-01-12T16:59:02.124Z,64.94
2023-01-12T17:01:35.121Z,65.53
2023-01-12T17:04:07.799Z,65.74
2023-01-12T17:06:40.780Z,64.37
2023-01-12T17:09:14.819Z,63.49
2023-01-12T17:11:50.034Z,60.73
2023-01-12T17:14:22.787Z,60.94
2023-01-12T17:16:58.007Z,59.71
2023-01-12T17:19:33.879Z,60.44
2023-01-12T17:22:07.659Z,60.76
2023-01-12T17:24:40.826Z,60.62
2023-01-12T17:27:13.521Z,60.92
2023-01-12T17:29:50.149Z,59.01
2023-01-12T17:32:22.944Z,58.74
2023-01-12T17:34:55.786Z,59.54
2023-01-12T17:37:28.368Z,57.94
2023-01-12T17:40:00.975Z,57.42
2023-01-12T17:42:33.598Z,58.09
2023-01-12T17:45:06.856Z,56.68
2023-01-12T17:47:39.450Z,58.02
2023-01-12T17:50:12.074Z,58.70
2023-01-12T17:52:44.696Z,58.79
2023-01-12T17:55:17.536Z,58.66
2023-01-12T17:57:50.169Z,58.17
2023-01-12T18:00:23.189Z,58.15
2023-01-12T18:02:55.826Z,58.04
2023-01-12T18:05:29.739Z,57.40
2023-01-12T18:08:02.386Z,57.90
2023-01-12T18:10:34.969Z,57.66
2023-01-12T18:13:07.699Z,58.08
2023-01-12T18:15:40.632Z,57.50
2023-01-12T18:18:13.266Z,57.96
2023-01-12T18:20:45.871Z,57.26
2023-01-12T18:23:18.645Z,57.61
2023-01-12T18:25:51.238Z,57.63
2023-01-12T18:28:23.831Z,57.35
2023-01-12T18:31:11.032Z,55.77
2023-01-12T18:33:44.533Z,55.31
2023-01-12T18:36:19.863Z,55.74
2023-01-12T18:38:53.689Z,54.58
2023-01-12T18:41:26.406Z,54.63
2023-01-12T18:43:59.455Z,54.86
2023-01-12T18:46:33.858Z,55.35
2023-01-12T18:49:06.442Z,57.17
2023-01-12T18:51:39.064Z,55.69
2023-01-12T18:54:11.721Z,56.09
2023-01-12T18:56:44.311Z,55.92
2023-01-12T18:59:17.268Z,55.93
2023-01-12T19:01:50.064Z,55.99
2023-01-12T19:04:22.773Z,55.85
2023-01-12T19:06:55.407Z,55.91
2023-01-12T19:09:28.069Z,55.92
2023-01-12T19:12:01.666Z,56.39
2023-01-12T19:14:34.561Z,57.30
2023-01-12T19:17:07.176Z,56.31
2023-01-12T19:19:42.255Z,55.62
2023-01-12T19:22:14.933Z,56.59
2023-01-12T19:24:47.557Z,55.60
2023-01-12T19:27:20.253Z,54.69
2023-01-12T19:29:54.859Z,53.73
2023-01-12T19:32:27.628Z,54.31
2023-01-12T19:35:10.206Z,55.31
2023-01-12T19:37:47.959Z,55.90
2023-01-12T19:40:20.597Z,56.71
2023-01-12T19:42:53.221Z,58.55
2023-01-12T19:45:25.963Z,57.49
2023-01-12T19:47:58.561Z,56.81
2023-01-12T19:50:31.263Z,57.44
2023-01-12T19:53:06.230Z,58.22
2023-01-12T19:55:41.918Z,58.39
2023-01-12T19:58:14.621Z,59.69
2023-01-12T20:00:48.507Z,59.44
2023-01-12T20:03:23.906Z,60.33
2023-01-12T20:05:56.506Z,58.93
2023-01-12T20:08:29.127Z,59.39
2023-01-12T20:11:05.167Z,60.76
2023-01-12T20:13:38.250Z,59.73
2023-01-12T20:16:10.977Z,59.79
2023-01-12T20:18:43.705Z,60.13
2023-01-12T20:21:16.425Z,59.08
2023-01-12T20:23:49.059Z,59.22
2023-01-12T20:26:21.702Z,58.42
2023-01-12T20:28:54.394Z,58.27
2023-01-12T20:31:27.625Z,57.68
2023-01-12T20:34:00.278Z,57.72
2023-01-12T20:36:33.428Z,57.37
2023-01-12T20:39:07.313Z,56.98
2023-01-12T20:41:41.621Z,57.45
2023-01-12T20:44:17.092Z,57.32
2023-01-12T20:46:49.837Z,57.46
2023-01-12T20:49:22.639Z,57.04
2023-01-12T20:51:58.653Z,56.93
2023-01-12T20:54:31.267Z,56.92
2023-01-12T20:57:03.963Z,57.12
2023-01-12T20:59:37.526Z,58.26
2023-01-12T21:02:21.183Z,58.07
2023-01-12T21:04:53.913Z,58.20
2023-01-12T21:07:26.509Z,58.20
2023-01-12T21:09:59.383Z,56.84
2023-01-12T21:12:32.040Z,57.91
2023-01-12T21:15:05.207Z,58.86
2023-01-12T21:17:37.857Z,58.52
2023-01-12T21:20:11.352Z,57.74
2023-01-12T21:22:43.976Z,57.68
2023-01-12T21:25:16.774Z,57.49
2023-01-12T21:27:49.396Z,56.39
2023-01-12T21:30:22.281Z,57.67
2023-01-12T21:32:54.890Z,57.99
2023-01-12T21:35:27.488Z,56.57
2023-01-12T21:38:00.274Z,56.60
2023-01-12T21:40:33.021Z,56.99
2023-01-12T21:43:05.604Z,56.11
2023-01-12T21:45:42.268Z,56.42
2023-01-12T21:48:17.488Z,56.50
2023-01-12T21:50:50.259Z,57.09
2023-01-12T21:53:22.836Z,56.54
2023-01-12T21:55:58.308Z,56.36
2023-01-12T21:58:34.241Z,56.79
2023-01-12T22:01:12.040Z,57.12
2023-01-12T22:03:44.827Z,57.38
2023-01-12T22:06:17.431Z,56.67
2023-01-12T22:08:50.034Z,56.46
2023-01-12T22:11:22.731Z,57.58
2023-01-12T22:13:55.348Z,56.94
2023-01-12T22:16:27.959Z,57.36
2023-01-12T22:19:00.707Z,57.67
2023-01-12T22:21:33.368Z,58.38
2023-01-12T22:24:06.677Z,57.60
2023-01-12T22:26:39.305Z,58.44
2023-01-12T22:29:11.903Z,58.37
2023-01-12T22:31:44.591Z,58.13
2023-01-12T22:34:17.229Z,58.08
2023-01-12T22:36:49.897Z,59.02
2023-01-12T22:39:22.492Z,59.64
2023-01-12T22:41:55.120Z,59.68
2023-01-12T22:44:27.742Z,59.67
2023-01-12T22:47:00.326Z,60.24
2023-01-12T22:49:32.930Z,59.86
2023-01-12T22:52:05.980Z,59.90
2023-01-12T22:54:38.534Z,59.15
2023-01-12T22:57:11.098Z,59.32
2023-01-12T22:59:43.701Z,59.36
2023-01-12T23:02:16.414Z,58.60
2023-01-12T23:04:49.074Z,59.25
2023-01-12T23:07:21.952Z,59.97
2023-01-12T23:09:54.578Z,59.43
2023-01-12T23:12:27.210Z,60.27
2023-01-12T23:14:59.823Z,59.51
2023-01-12T23:17:32.736Z,59.40
2023-01-12T23:20:06.005Z,58.63
2023-01-12T23:22:38.606Z,59.11
2023-01-12T23:25:11.237Z,59.26
2023-01-12T23:27:43.916Z,58.81
2023-01-12T23:30:16.723Z,59.84
2023-01-12T23:32:49.360Z,59.24
2023-01-12T23:35:22.127Z,59.27
2023-01-12T23:37:54.869Z,59.26
2023-01-12T23:40:27.805Z,58.52
2023-01-12T23:43:02.765Z,59.12
2023-01-12T23:45:35.413Z,59.80
2023-01-12T23:48:08.203Z,59.60
2023-01-12T23:50:40.820Z,60.02
2023-01-12T23:53:13.441Z,60.65
2023-01-12T23:55:46.054Z,59.79
2023-01-12T23:58:18.782Z,60.14
